Time;durP1;ratioP1;P1;durP2;ratioP2;P2;SDS_P1;SDS_P2;PMS_P1;PMS_P2;Temp;Humidity;BMP_temperature;BMP_pressure;BME280_temperature;BME280_humidity;BME280_pressure;Samples;Min_cycle;Max_cycle;Signal;HPM_P1;HPM_P2
2022/07/24 00:04:00;;;;;;;;;;;;;;;20.84;60.10;100089.50;12182103;19;20018;-83
2022/07/24 00:08:02;;;;;;;8.98;4.65;;;;;;;20.82;60.09;100081.41;12218245;19;20350;-83
2022/07/24 00:12:04;;;;;;;9.55;5.13;;;;;;;20.84;59.83;100086.69;12225554;19;20010;-82
2022/07/24 00:16:06;;;;;;;9.30;4.90;;;;;;;20.89;59.93;100095.81;12194526;19;20603;-81
2022/07/24 00:20:09;;;;;;;8.30;4.65;;;;;;;20.92;59.64;100085.97;12219755;19;20352;-82
2022/07/24 00:24:14;;;;;;;10.82;4.80;;;;;;;20.91;60.43;100085.16;12223966;19;20018;-81
2022/07/24 00:28:15;;;;;;;7.88;5.60;;;;;;;20.88;59.93;100088.56;12198602;19;20040;-83
2022/07/24 00:32:17;;;;;;;10.32;5.53;;;;;;;20.83;60.09;100082.25;12215363;19;20049;-82
2022/07/24 00:36:22;;;;;;;7.38;4.88;;;;;;;20.78;59.86;100079.53;12235080;19;20026;-80
2022/07/24 00:40:24;;;;;;;8.57;5.68;;;;;;;20.75;60.88;100082.97;12223036;19;20531;-85
2022/07/24 00:44:26;;;;;;;7.50;5.03;;;;;;;20.72;59.93;100084.41;12219676;19;20023;-81
2022/07/24 00:48:27;;;;;;;7.57;5.05;;;;;;;20.67;60.24;100078.91;12218585;19;20129;-82
2022/07/24 00:52:32;;;;;;;10.35;4.95;;;;;;;20.64;60.54;100077.59;12189366;19;20027;-80
2022/07/24 00:56:33;;;;;;;;;;;;;;;20.62;61.29;100077.06;12219529;19;20513;-81
2022/07/24 01:00:35;;;;;;;8.07;4.90;;;;;;;20.66;60.79;100080.06;12194005;19;19982;-80
2022/07/24 01:04:38;;;;;;;9.88;4.85;;;;;;;20.66;61.29;100077.25;12210324;19;20006;-82
2022/07/24 01:08:46;;;;;;;7.28;4.88;;;;;;;20.68;61.08;100075.00;12209807;19;20461;-81
2022/07/24 01:12:48;;;;;;;7.78;5.00;;;;;;;20.75;61.35;100069.78;12180251;19;20110;-82
2022/07/24 01:16:50;;;;;;;6.72;4.78;;;;;;;20.78;60.53;100069.16;12205857;19;20078;-81
2022/07/24 01:20:52;;;;;;;7.37;4.97;;;;;;;20.80;60.30;100066.88;12211858;19;20097;-80
2022/07/24 01:24:54;;;;;;;5.95;4.68;;;;;;;20.76;60.90;100063.03;12184419;19;20070;-82
2022/07/24 01:28:56;;;;;;;5.78;4.63;;;;;;;20.72;60.49;100064.81;12208879;19;20102;-82
2022/07/24 01:32:58;;;;;;;6.68;4.78;;;;;;;20.70;60.51;100070.75;12204712;19;20073;-82
2022/07/24 01:36:59;;;;;;;9.30;5.23;;;;;;;20.69;60.31;100071.84;12168184;19;20105;-81
2022/07/24 01:41:01;;;;;;;9.05;5.32;;;;;;;20.63;61.18;100072.28;12208397;19;20077;-82
2022/07/24 01:45:03;;;;;;;9.57;4.65;;;;;;;20.57;61.57;100065.13;12204335;19;20041;-82
2022/07/24 01:49:05;;;;;;;9.70;5.10;;;;;;;20.51;60.90;100067.16;12178278;19;20090;-82
2022/07/24 01:53:07;;;;;;;7.68;5.25;;;;;;;20.47;61.50;100066.97;12201835;19;20003;-81
2022/07/24 01:57:09;;;;;;;8.45;5.18;;;;;;;20.44;61.63;100059.19;12208754;19;20838;-81
2022/07/24 02:01:10;;;;;;;7.85;5.10;;;;;;;20.40;62.01;100060.09;12180685;19;20016;-82
2022/07/24 02:05:14;;;;;;;8.77;5.25;;;;;;;20.35;62.11;100061.03;12192148;19;20018;-81
2022/07/24 02:09:15;;;;;;;8.00;4.85;;;;;;;20.28;62.00;100057.81;12200492;19;20030;-81
2022/07/24 02:13:17;;;;;;;8.75;5.47;;;;;;;20.27;62.05;100061.75;12173566;19;20003;-82
2022/07/24 02:17:18;;;;;;;8.32;4.93;;;;;;;20.20;62.71;100061.34;12197476;19;20002;-82
2022/07/24 02:21:21;;;;;;;7.35;4.75;;;;;;;20.13;63.01;100063.69;12201865;19;20011;-81
2022/07/24 02:25:22;;;;;;;7.63;5.23;;;;;;;20.07;63.37;100053.72;12174909;19;20011;-81
2022/07/24 02:29:24;;;;;;;12.15;5.10;;;;;;;20.01;63.55;100056.59;12196879;19;20066;-82
2022/07/24 02:33:31;;;;;;;7.82;5.47;;;;;;;19.98;64.07;100051.63;12187754;19;20011;-81
2022/07/24 02:37:41;;;;;;;7.45;5.00;;;;;;;19.97;64.08;100058.38;12192694;19;20007;-83
2022/07/24 02:41:43;;;;;;;8.85;5.95;;;;;;;19.95;64.14;100059.81;12199394;19;20026;-83
2022/07/24 02:45:44;;;;;;;9.25;5.55;;;;;;;19.94;64.37;100061.78;12174786;19;20409;-82
2022/07/24 02:49:53;;;;;;;7.07;5.07;;;;;;;19.96;64.45;100055.88;12203030;19;20087;-82
2022/07/24 02:53:55;;;;;;;7.57;5.53;;;;;;;19.94;64.54;100061.78;12193407;19;20028;-83
2022/07/24 02:57:57;;;;;;;8.30;5.28;;;;;;;19.97;64.74;100066.75;12182060;19;20086;-81
2022/07/24 03:01:58;;;;;;;10.47;5.00;;;;;;;20.03;63.83;100064.69;12214591;19;20013;-81
2022/07/24 03:06:00;;;;;;;8.23;5.47;;;;;;;20.06;64.10;100066.06;12213374;19;20086;-81
2022/07/24 03:10:07;;;;;;;7.72;5.22;;;;;;;20.04;64.23;100064.38;12183422;19;20094;-82
2022/07/24 03:14:08;;;;;;;7.35;5.60;;;;;;;20.08;63.95;100066.56;12197631;19;20013;-81
2022/07/24 03:18:10;;;;;;;8.43;5.03;;;;;;;20.07;64.55;100071.34;12207016;19;20017;-82
2022/07/24 03:22:22;;;;;;;8.15;5.32;;;;;;;19.99;64.31;100070.09;12185077;19;20038;-81
2022/07/24 03:26:23;;;;;;;9.18;5.68;;;;;;;19.87;64.69;100066.94;12206425;19;20034;-81
2022/07/24 03:30:25;;;;;;;9.02;5.90;;;;;;;19.72;65.68;100069.97;12213591;19;20014;-81
2022/07/24 03:34:27;;;;;;;7.63;5.32;;;;;;;19.61;65.94;100080.47;12184026;19;20639;-81
2022/07/24 03:38:29;;;;;;;8.57;5.30;;;;;;;19.48;66.25;100075.63;12205476;19;20011;-81
2022/07/24 03:42:30;;;;;;;9.57;5.85;;;;;;;19.34;66.98;100081.16;12205638;19;20078;-81
2022/07/24 03:46:32;;;;;;;7.15;5.38;;;;;;;19.26;67.78;100087.41;12187195;19;20013;-81
2022/07/24 03:50:34;;;;;;;11.52;6.30;;;;;;;19.18;68.33;100094.50;12214874;19;20034;-80
2022/07/24 03:54:36;;;;;;;7.00;5.50;;;;;;;19.10;68.65;100090.44;12189642;19;20484;-81
2022/07/24 03:58:38;;;;;;;6.97;5.72;;;;;;;19.03;69.19;100091.91;12206425;19;20468;-80
2022/07/24 04:02:40;;;;;;;8.43;6.03;;;;;;;18.99;69.27;100096.44;12208724;19;20011;-81
2022/07/24 04:06:42;;;;;;;9.30;6.38;;;;;;;18.95;69.22;100098.16;12174281;19;20257;-80
2022/07/24 04:10:44;;;;;;;9.73;6.20;;;;;;;18.91;69.92;100097.94;12254502;19;20009;-79
2022/07/24 04:14:46;;;;;;;11.93;6.37;;;;;;;18.88;70.27;100101.31;12228898;19;20392;-82
2022/07/24 04:18:48;;;;;;;9.25;6.32;;;;;;;18.86;70.81;100101.63;12191069;19;20098;-81
2022/07/24 04:22:49;;;;;;;8.60;6.40;;;;;;;18.86;71.17;100103.59;12212751;19;20077;-80
2022/07/24 04:26:52;;;;;;;9.05;6.50;;;;;;;18.84;71.86;100094.69;12210718;19;20018;-81
2022/07/24 04:30:53;;;;;;;10.50;6.00;;;;;;;18.81;72.21;100098.06;12189432;19;20016;-82
2022/07/24 04:34:55;;;;;;;9.15;6.80;;;;;;;18.80;72.65;100093.59;12205882;19;20114;-83
2022/07/24 04:38:57;;;;;;;12.20;6.30;;;;;;;18.78;73.13;100095.88;12210020;19;20432;-82
2022/07/24 04:42:58;;;;;;;10.23;7.05;;;;;;;18.81;73.78;100084.09;12187836;19;20094;-81
2022/07/24 04:47:00;;;;;;;13.27;7.05;;;;;;;18.87;73.65;100089.31;12208796;19;20006;-83
2022/07/24 04:51:02;;;;;;;8.00;5.93;;;;;;;18.93;73.99;100081.72;12216327;19;20028;-83
2022/07/24 04:55:04;;;;;;;9.55;6.18;;;;;;;19.00;73.77;100087.75;12183061;19;20012;-82
2022/07/24 04:59:06;;;;;;;8.98;6.55;;;;;;;19.04;74.17;100088.84;12208614;19;20086;-80
2022/07/24 05:03:08;;;;;;;11.13;6.90;;;;;;;19.08;73.99;100095.47;12201423;19;20011;-82
2022/07/24 05:07:09;;;;;;;9.40;6.60;;;;;;;19.13;73.84;100095.41;12175111;19;20042;-82
2022/07/24 05:11:11;;;;;;;8.30;6.22;;;;;;;19.21;73.74;100098.66;12210281;19;20038;-82
2022/07/24 05:15:13;;;;;;;9.05;6.45;;;;;;;19.28;75.15;100099.97;12207978;19;20010;-83
2022/07/24 05:19:14;;;;;;;7.90;6.05;;;;;;;19.39;74.93;100103.41;12179163;19;20010;-82
2022/07/24 05:23:16;;;;;;;12.32;6.72;;;;;;;19.50;74.63;100104.94;12213683;19;20131;-81
2022/07/24 05:27:18;;;;;;;7.68;5.97;;;;;;;19.63;74.78;100105.31;12212606;19;20713;-82
2022/07/24 05:31:20;;;;;;;9.35;6.82;;;;;;;19.71;75.23;100104.66;12185869;19;20010;-81
2022/07/24 05:35:22;;;;;;;9.95;6.63;;;;;;;19.84;75.16;100103.91;12210869;19;20014;-81
2022/07/24 05:39:29;;;;;;;9.55;6.53;;;;;;;19.96;74.74;100101.47;12206158;19;20022;-81
2022/07/24 05:43:31;;;;;;;9.63;6.47;;;;;;;20.11;74.36;100105.97;12176431;19;20373;-80
2022/07/24 05:47:41;;;;;;;9.88;6.30;;;;;;;20.25;74.27;100100.38;12207599;19;20073;-82
2022/07/24 05:51:42;;;;;;;8.80;6.72;;;;;;;20.34;73.38;100098.53;12182384;19;20027;-81
2022/07/24 05:55:45;;;;;;;8.00;6.30;;;;;;;20.42;73.60;100100.63;12201024;19;20013;-81
2022/07/24 05:59:46;;;;;;;8.93;6.60;;;;;;;20.53;73.19;100108.88;12198917;19;20034;-81
2022/07/24 06:03:48;;;;;;;8.23;5.97;;;;;;;20.66;72.79;100110.84;12188474;19;20093;-82
2022/07/24 06:07:50;;;;;;;8.10;6.30;;;;;;;20.81;72.26;100110.53;12207466;19;20010;-83
2022/07/24 06:11:51;;;;;;;9.35;6.22;;;;;;;20.98;71.70;100109.09;12206196;19;20006;-82
2022/07/24 06:15:54;;;;;;;11.18;6.10;;;;;;;21.14;70.64;100110.44;12187070;19;20010;-81
2022/07/24 06:19:56;;;;;;;8.43;5.60;;;;;;;21.37;68.00;100108.56;12208235;19;20080;-82
2022/07/24 06:23:57;;;;;;;8.00;5.57;;;;;;;21.63;65.11;100119.19;12208951;19;20030;-82
2022/07/24 06:27:59;;;;;;;8.60;6.15;;;;;;;21.94;64.39;100110.88;12185894;19;20090;-81
2022/07/24 06:32:01;;;;;;;7.00;5.60;;;;;;;22.22;62.74;100117.19;12201504;19;20123;-81
2022/07/24 06:36:03;;;;;;;6.65;5.35;;;;;;;22.46;61.40;100122.47;12202890;19;20475;-82
2022/07/24 06:40:05;;;;;;;7.23;5.13;;;;;;;22.71;59.82;100121.75;12177088;19;20086;-80
2022/07/24 06:44:07;;;;;;;9.00;5.28;;;;;;;22.97;58.68;100118.28;12196446;19;20097;-81
2022/07/24 06:48:09;;;;;;;6.35;4.85;;;;;;;23.17;58.12;100112.03;12205839;19;20013;-82
2022/07/24 06:52:10;;;;;;;8.43;4.93;;;;;;;23.38;57.23;100111.41;12179936;19;20085;-81
2022/07/24 06:56:12;;;;;;;6.47;5.03;;;;;;;23.58;55.66;100105.13;12196306;19;20835;-81
2022/07/24 07:00:14;;;;;;;8.07;5.37;;;;;;;23.73;54.77;100103.84;12196314;19;20532;-81
2022/07/24 07:04:16;;;;;;;6.82;5.63;;;;;;;23.93;54.33;100102.38;12176906;19;20077;-81
2022/07/24 07:08:17;;;;;;;7.88;5.10;;;;;;;24.15;53.88;100103.31;12198829;19;20045;-81
2022/07/24 07:12:19;;;;;;;7.80;5.03;;;;;;;24.32;53.91;100097.66;12190459;19;20006;-81
2022/07/24 07:16:21;;;;;;;8.43;5.40;;;;;;;24.56;53.07;100094.31;12173620;19;20017;-80
2022/07/24 07:20:23;;;;;;;8.80;5.27;;;;;;;24.77;52.54;100094.38;12207862;19;20034;-83
2022/07/24 07:24:25;;;;;;;8.52;5.57;;;;;;;24.98;52.29;100100.91;12200889;19;20011;-83
2022/07/24 07:28:26;;;;;;;7.60;5.70;;;;;;;25.22;51.65;100094.69;12176885;19;20067;-82
2022/07/24 07:32:28;;;;;;;7.65;5.75;;;;;;;25.48;50.99;100099.31;12191570;19;20003;-83
2022/07/24 07:36:30;;;;;;;7.63;6.17;;;;;;;25.67;50.38;100088.38;12225353;19;20028;-83
2022/07/24 07:40:32;;;;;;;11.87;5.67;;;;;;;25.87;49.39;100089.53;12216302;19;20006;-84
2022/07/24 07:44:33;;;;;;;8.30;5.32;;;;;;;26.10;49.15;100083.53;12208335;19;20045;-82
2022/07/24 07:48:35;;;;;;;8.18;5.60;;;;;;;26.26;47.84;100092.97;12220887;19;20024;-83
2022/07/24 07:52:37;;;;;;;6.20;5.03;;;;;;;26.47;47.88;100100.56;12184093;19;20086;-83
2022/07/24 07:56:38;;;;;;;7.93;6.20;;;;;;;26.65;47.36;100101.22;12217209;19;20185;-83
2022/07/24 08:00:40;;;;;;;8.70;6.17;;;;;;;26.78;46.45;100112.22;12192717;19;20006;-84
2022/07/24 08:04:42;;;;;;;8.93;5.15;;;;;;;26.91;45.48;100112.22;12218501;19;20409;-84
2022/07/24 08:08:43;;;;;;;7.83;5.73;;;;;;;27.05;45.17;100107.84;12218168;19;20096;-84
2022/07/24 08:12:57;;;;;;;6.33;4.97;;;;;;;27.21;43.78;100110.00;12161217;19;20010;-86
2022/07/24 08:16:59;;;;;;;8.88;5.13;;;;;;;27.34;43.86;100110.84;12209301;19;20011;-85
2022/07/24 08:21:01;;;;;;;7.60;5.72;;;;;;;27.38;43.46;100112.56;12204270;19;20014;-81
2022/07/24 08:25:03;;;;;;;8.33;5.27;;;;;;;27.53;42.83;100104.53;12195844;19;20127;-82
2022/07/24 08:29:07;;;;;;;6.93;5.30;;;;;;;27.85;41.11;100103.53;12214134;19;20007;-83
2022/07/24 08:33:23;;;;;;;6.13;5.07;;;;;;;28.18;41.48;100106.09;12204562;19;20011;-81
2022/07/24 08:37:25;;;;;;;6.18;4.90;;;;;;;28.45;41.08;100111.31;12179573;19;20010;-81
2022/07/24 08:41:32;;;;;;;7.07;5.47;;;;;;;28.63;40.65;100099.25;12212072;19;20561;-82
2022/07/24 08:45:38;;;;;;;8.23;5.40;;;;;;;28.89;39.77;100092.22;12213142;19;20043;-81
2022/07/24 08:49:41;;;;;;;6.95;5.28;;;;;;;29.00;39.21;100089.63;12189691;19;20398;-81
2022/07/24 08:53:43;;;;;;;8.15;5.30;;;;;;;28.99;39.22;100085.97;12199848;19;20402;-80
2022/07/24 08:57:46;;;;;;;7.55;5.40;;;;;;;29.10;39.59;100080.59;12174851;19;20014;-82
2022/07/24 09:01:48;;;;;;;7.65;5.90;;;;;;;29.27;39.51;100087.88;12212824;19;20746;-82
2022/07/24 09:05:56;;;;;;;10.25;5.55;;;;;;;29.51;38.26;100087.66;12203049;19;20015;-82
2022/07/24 09:10:04;;;;;;;9.38;6.00;;;;;;;29.58;37.58;100083.31;12185280;19;20666;-81
2022/07/24 09:18:34;;;;;;;6.75;5.57;;;;;;;29.88;36.88;100081.56;12195580;19;20010;-81
2022/07/24 09:22:38;;;;;;;8.90;6.20;;;;;;;30.07;36.22;100077.88;12181065;19;20014;-81
2022/07/24 09:26:45;;;;;;;7.50;6.28;;;;;;;29.99;36.32;100073.28;12198635;19;20006;-81
2022/07/24 09:30:48;;;;;;;8.55;5.60;;;;;;;29.96;36.52;100071.19;12169614;19;20039;-81
2022/07/24 09:34:53;;;;;;;9.35;5.97;;;;;;;30.21;36.59;100066.00;12207089;19;19999;-81
2022/07/24 09:38:56;;;;;;;7.25;5.63;;;;;;;30.43;35.43;100064.41;12205096;19;20375;-81
2022/07/24 09:43:26;;;;;;;8.68;5.82;;;;;;;30.64;35.59;100067.63;12180527;19;20074;-81
2022/07/24 09:47:35;;;;;;;7.35;5.93;;;;;;;31.03;34.96;100067.50;12200411;19;20007;-80
2022/07/24 09:51:37;;;;;;;;;;;;;;;31.20;35.01;100065.28;12204472;19;20006;-81
2022/07/24 09:55:39;;;;;;;6.73;5.60;;;;;;;31.31;34.09;100052.03;12176828;19;20347;-81
2022/07/24 09:59:42;;;;;;;7.10;5.85;;;;;;;31.62;34.33;100056.59;12206227;19;20808;-84
2022/07/24 10:03:46;;;;;;;7.47;6.30;;;;;;;31.67;33.45;100061.91;12188808;19;20022;-83
2022/07/24 10:07:49;;;;;;;7.93;6.53;;;;;;;31.74;33.23;100064.88;12212276;19;20018;-82
2022/07/24 10:11:53;;;;;;;9.45;6.65;;;;;;;31.83;33.86;100056.03;12193192;19;20498;-81
2022/07/24 10:16:13;;;;;;;8.35;6.78;;;;;;;32.05;33.38;100059.97;12173989;19;20550;-80
2022/07/24 10:20:36;;;;;;;9.70;7.05;;;;;;;32.15;33.06;100052.75;12196401;19;20074;-80
2022/07/24 10:24:56;;;;;;;8.77;6.28;;;;;;;32.20;32.24;100052.41;12174804;19;20014;-81
2022/07/24 10:29:07;;;;;;;9.20;6.78;;;;;;;32.21;32.91;100049.16;12200852;19;20007;-81
2022/07/24 10:33:09;;;;;;;9.23;7.35;;;;;;;31.95;32.37;100041.56;12199547;19;20009;-81
2022/07/24 10:37:39;;;;;;;8.85;7.85;;;;;;;32.00;32.76;100044.03;12169176;19;20092;-81
2022/07/24 10:41:41;;;;;;;8.85;7.30;;;;;;;32.22;32.76;100038.59;12199043;19;20010;-81
2022/07/24 10:45:44;;;;;;;11.65;7.35;;;;;;;32.55;32.77;100028.34;12176274;19;20006;-82
2022/07/24 10:49:50;;;;;;;10.25;7.70;;;;;;;32.99;32.45;100013.22;12197848;19;20015;-80
2022/07/24 10:53:56;;;;;;;9.27;7.97;;;;;;;33.30;31.25;100006.88;12193131;19;20523;-81
2022/07/24 10:58:02;;;;;;;11.38;8.38;;;;;;;33.54;30.57;100011.13;12170419;19;20006;-81
2022/07/24 11:02:28;;;;;;;11.63;7.82;;;;;;;33.65;30.59;100011.16;12192149;19;20019;-80
2022/07/24 11:06:50;;;;;;;11.98;8.65;;;;;;;33.78;29.82;100009.56;12195981;19;20019;-82
2022/07/24 11:10:54;;;;;;;8.60;7.70;;;;;;;33.88;30.10;100008.00;12180049;19;20006;-81
2022/07/24 11:19:22;;;;;;;11.13;9.02;;;;;;;34.20;29.39;99995.81;12259356;19;20014;-83
2022/07/24 11:23:23;;;;;;;9.45;8.40;;;;;;;34.21;29.13;99986.03;12221151;19;20468;-81
2022/07/24 11:27:25;;;;;;;9.75;7.43;;;;;;;34.02;29.31;99982.28;12190523;19;20010;-80
2022/07/24 11:31:27;;;;;;;9.85;8.00;;;;;;;34.23;29.02;99977.84;12219148;19;20052;-81
2022/07/24 11:35:35;;;;;;;11.18;8.15;;;;;;;34.33;28.68;99971.34;12204098;19;20011;-81
2022/07/24 11:39:39;;;;;;;9.40;8.40;;;;;;;34.36;28.64;99963.97;12200988;19;20074;-82
2022/07/24 11:43:54;;;;;;;9.85;8.15;;;;;;;34.44;28.53;99963.56;12198726;19;20376;-85
2022/07/24 11:47:56;;;;;;;10.32;8.40;;;;;;;34.60;28.84;99953.78;12184337;19;20043;-82
2022/07/24 11:51:57;;;;;;;9.10;7.72;;;;;;;34.97;27.80;99953.31;12217228;19;20087;-85
2022/07/24 11:56:03;;;;;;;8.82;7.93;;;;;;;35.17;27.47;99938.56;12208920;19;20011;-83
2022/07/24 12:00:14;;;;;;;13.18;8.50;;;;;;;35.39;27.31;99940.91;12185230;19;20082;-81
2022/07/24 12:04:21;;;;;;;9.98;8.30;;;;;;;35.58;26.96;99930.22;12207017;19;20578;-81
2022/07/24 12:08:28;;;;;;;10.05;8.90;;;;;;;35.87;26.75;99927.19;12201442;19;20021;-81
2022/07/24 12:12:35;;;;;;;9.23;8.43;;;;;;;36.11;26.41;99926.22;12181628;19;20014;-81
2022/07/24 12:16:36;;;;;;;11.20;8.55;;;;;;;36.42;26.44;99920.66;12202139;19;20478;-82
2022/07/24 12:20:43;;;;;;;8.75;7.80;;;;;;;36.57;26.00;99910.69;12186395;19;20014;-83
2022/07/24 12:24:45;;;;;;;9.82;8.82;;;;;;;37.46;25.38;99908.06;12213764;19;20022;-81
2022/07/24 12:28:47;;;;;;;8.80;8.00;;;;;;;37.48;24.91;99885.44;12202161;19;20478;-85
2022/07/24 12:33:04;;;;;;;11.35;8.40;;;;;;;38.20;24.88;99891.78;12186737;19;20369;-83
2022/07/24 12:37:21;;;;;;;9.13;7.53;;;;;;;38.68;23.07;99884.75;12207073;19;20468;-82
2022/07/24 12:41:25;;;;;;;8.70;7.78;;;;;;;39.17;22.81;99887.09;12210254;19;20074;-82
2022/07/24 12:45:27;;;;;;;10.07;7.43;;;;;;;39.73;21.88;99883.41;12189466;19;20018;-82
2022/07/24 12:49:41;;;;;;;12.48;11.25;;;;;;;40.20;22.08;99878.19;12209809;19;20483;-83
2022/07/24 12:53:42;;;;;;;7.65;6.88;;;;;;;40.90;20.67;99870.13;12182622;19;20010;-84
2022/07/24 12:57:44;;;;;;;8.82;7.20;;;;;;;41.65;19.95;99868.72;12202265;19;20006;-83
2022/07/24 13:01:50;;;;;;;8.77;7.13;;;;;;;41.76;19.29;99859.69;12207267;19;20002;-81
2022/07/24 13:05:55;;;;;;;7.22;6.53;;;;;;;42.25;18.66;99862.22;12182485;19;20078;-82
2022/07/24 13:09:57;;;;;;;7.00;6.32;;;;;;;42.76;18.51;99849.69;12189556;19;20078;-82
2022/07/24 13:13:58;;;;;;;7.38;6.60;;;;;;;43.00;18.55;99847.94;12202939;19;20027;-82
2022/07/24 13:18:07;;;;;;;6.82;6.22;;;;;;;42.85;17.95;99849.78;12182292;19;20014;-84
2022/07/24 13:22:10;;;;;;;7.45;6.68;;;;;;;43.30;17.86;99831.09;12197736;19;20088;-81
2022/07/24 13:26:11;;;;;;;7.30;6.60;;;;;;;43.21;17.96;99833.94;12206923;19;20031;-84
2022/07/24 13:30:14;;;;;;;7.45;6.53;;;;;;;43.87;17.63;99825.84;12189275;19;20508;-81
2022/07/24 13:34:16;;;;;;;7.78;6.53;;;;;;;43.99;16.81;99837.84;12200103;19;20018;-82
2022/07/24 13:38:17;;;;;;;7.18;6.57;;;;;;;44.10;16.82;99830.31;12203829;19;20014;-84
2022/07/24 13:42:20;;;;;;;8.38;6.68;;;;;;;44.18;16.73;99818.41;12183409;19;20590;-84
2022/07/24 13:46:22;;;;;;;7.60;6.85;;;;;;;44.28;16.53;99815.00;12205246;19;20007;-81
2022/07/24 13:50:24;;;;;;;7.30;6.60;;;;;;;44.51;16.87;99804.88;12201778;19;20017;-82
2022/07/24 13:54:26;;;;;;;6.97;6.28;;;;;;;44.68;16.58;99790.84;12183836;19;20098;-82
2022/07/24 13:58:29;;;;;;;7.13;6.43;;;;;;;45.08;16.10;99789.81;12197372;19;20361;-82
2022/07/24 14:02:30;;;;;;;10.02;7.20;;;;;;;45.13;15.46;99788.34;12180564;19;20105;-86
2022/07/24 14:06:34;;;;;;;7.97;7.18;;;;;;;45.16;15.52;99785.31;12205214;19;20085;-82
2022/07/24 14:10:36;;;;;;;7.47;6.88;;;;;;;45.31;15.52;99773.78;12196496;19;20532;-80
2022/07/24 14:14:39;;;;;;;9.45;7.05;;;;;;;45.38;15.18;99770.50;12179125;19;20074;-82
2022/07/24 14:18:41;;;;;;;7.95;7.05;;;;;;;45.37;15.07;99768.09;12207017;19;20015;-81
2022/07/24 14:22:42;;;;;;;9.45;6.55;;;;;;;45.35;15.46;99764.88;12203420;19;20626;-81
2022/07/24 14:26:45;;;;;;;7.93;7.22;;;;;;;45.86;15.00;99761.84;12186669;19;20013;-82
2022/07/24 14:30:46;;;;;;;7.03;6.40;;;;;;;46.06;14.69;99752.53;12206121;19;20772;-82
2022/07/24 14:34:48;;;;;;;8.60;6.90;;;;;;;45.83;15.08;99744.59;12202012;19;20544;-83
2022/07/24 14:38:50;;;;;;;8.63;7.80;;;;;;;45.90;14.91;99735.50;12187236;19;20022;-81
2022/07/24 14:42:52;;;;;;;8.50;7.57;;;;;;;45.97;15.10;99729.31;12215623;19;20010;-82
2022/07/24 14:46:53;;;;;;;8.20;7.40;;;;;;;46.46;14.79;99730.84;12209938;19;20427;-82
2022/07/24 14:50:56;;;;;;;8.57;7.60;;;;;;;46.32;14.86;99725.81;12184243;19;20054;-83
2022/07/24 14:54:59;;;;;;;8.45;7.75;;;;;;;44.44;15.44;99731.75;12206933;19;20131;-83
2022/07/24 14:59:01;;;;;;;8.43;7.63;;;;;;;42.78;16.66;99726.25;12214401;19;20035;-81
2022/07/24 15:03:03;;;;;;;8.50;7.65;;;;;;;40.89;18.28;99724.84;12205559;19;20015;-81
2022/07/24 15:07:05;;;;;;;8.60;7.72;;;;;;;39.44;19.38;99725.50;12212435;19;20014;-81
2022/07/24 15:11:06;;;;;;;9.95;7.55;;;;;;;39.22;19.44;99719.44;12215707;19;20027;-83
2022/07/24 15:15:09;;;;;;;9.77;7.95;;;;;;;39.49;18.69;99704.78;12177245;19;20719;-81
2022/07/24 15:19:11;;;;;;;8.60;7.45;;;;;;;38.92;19.70;99706.16;12206434;19;20055;-80
2022/07/24 15:23:12;;;;;;;8.55;7.75;;;;;;;40.05;19.12;99698.00;12203278;19;20464;-85
2022/07/24 15:27:14;;;;;;;7.63;6.85;;;;;;;40.85;18.17;99685.81;12185196;19;20028;-82
2022/07/24 15:31:16;;;;;;;8.50;7.70;;;;;;;40.09;18.30;99681.38;12209928;19;20030;-82
2022/07/24 15:35:19;;;;;;;8.75;7.22;;;;;;;38.58;19.51;99683.41;12209941;19;20018;-83
2022/07/24 15:39:21;;;;;;;8.18;7.35;;;;;;;37.59;20.58;99676.28;12179175;19;20419;-80
2022/07/24 15:43:23;;;;;;;9.60;7.82;;;;;;;36.98;21.43;99670.66;12205715;19;20479;-82
2022/07/24 15:47:28;;;;;;;9.45;7.78;;;;;;;36.59;21.82;99660.53;12203243;19;20338;-80
2022/07/24 15:51:30;;;;;;;9.52;7.55;;;;;;;36.11;22.14;99656.59;12182538;19;20076;-83
2022/07/24 15:55:31;;;;;;;9.18;7.72;;;;;;;35.92;22.49;99651.50;12205875;19;20014;-86
2022/07/24 15:59:33;;;;;;;8.88;6.97;;;;;;;35.60;22.60;99644.84;12180081;19;20015;-81
2022/07/24 16:03:34;;;;;;;8.13;6.90;;;;;;;35.25;22.95;99650.84;12201145;19;20018;-82
2022/07/24 16:07:36;;;;;;;7.80;7.00;;;;;;;34.79;23.39;99652.81;12212360;19;20114;-81
2022/07/24 16:11:41;;;;;;;9.13;7.32;;;;;;;34.36;23.62;99650.16;12188966;19;20418;-80
2022/07/24 16:15:42;;;;;;;8.20;6.45;;;;;;;34.19;23.79;99639.59;12205704;19;20014;-82
2022/07/24 16:19:44;;;;;;;7.80;6.25;;;;;;;34.25;23.37;99641.63;12213271;19;20471;-80
2022/07/24 16:23:46;;;;;;;7.10;6.40;;;;;;;34.31;23.16;99626.91;12190128;19;20014;-80
2022/07/24 16:27:57;;;;;;;7.40;6.32;;;;;;;34.01;23.42;99623.28;12210076;19;20014;-80
2022/07/24 16:31:58;;;;;;;7.97;6.70;;;;;;;33.80;23.72;99623.38;12216055;19;20416;-81
2022/07/24 16:36:00;;;;;;;;;;;;;;;33.57;23.98;99621.78;12187922;19;20021;-81
2022/07/24 16:40:04;;;;;;;8.37;5.10;;;;;;;33.40;24.36;99613.19;12213828;19;19938;-83
2022/07/24 16:44:15;;;;;;;7.30;5.20;;;;;;;33.23;24.18;99612.00;12213134;19;20468;-81
2022/07/24 16:48:16;;;;;;;6.07;5.32;;;;;;;33.08;24.06;99606.28;12195677;19;20023;-82
2022/07/24 16:52:18;;;;;;;7.45;5.47;;;;;;;32.99;24.32;99607.91;12211173;19;20077;-81
2022/07/24 16:56:40;;;;;;;7.10;5.95;;;;;;;32.85;23.75;99597.28;12188017;19;20490;-80
2022/07/24 17:00:42;;;;;;;6.22;4.97;;;;;;;32.76;24.50;99591.16;12208972;19;20023;-80
2022/07/24 17:04:45;;;;;;;7.28;6.13;;;;;;;32.67;24.68;99594.41;12208093;19;20010;-80
2022/07/24 17:08:47;;;;;;;6.13;5.43;;;;;;;32.57;24.87;99590.31;12191010;19;20426;-82
2022/07/24 17:12:48;;;;;;;7.18;6.05;;;;;;;32.52;25.54;99592.75;12204085;19;20003;-83
2022/07/24 17:16:50;;;;;;;5.38;4.85;;;;;;;32.53;25.30;99585.81;12212521;19;20070;-85
2022/07/24 17:20:52;;;;;;;;;;;;;;;32.38;25.04;99596.34;12194283;19;20020;-83
2022/07/24 17:24:53;;;;;;;7.40;5.30;;;;;;;32.25;25.20;99597.94;12209775;19;19928;-79
2022/07/24 17:28:55;;;;;;;6.55;4.95;;;;;;;32.34;24.94;99598.38;12211215;19;20086;-80
2022/07/24 17:32:56;;;;;;;6.95;5.57;;;;;;;33.16;24.48;99594.88;12187992;19;20110;-79
2022/07/24 17:36:58;;;;;;;7.25;5.00;;;;;;;33.35;23.99;99600.16;12223653;19;20010;-81
2022/07/24 17:41:00;;;;;;;6.40;4.95;;;;;;;32.87;24.53;99597.66;12210371;19;20026;-82
2022/07/24 17:45:02;;;;;;;6.55;5.28;;;;;;;32.47;24.91;99593.13;12185095;19;20074;-83
2022/07/24 17:49:04;;;;;;;7.03;5.10;;;;;;;32.21;25.44;99584.47;12214932;19;20032;-82
2022/07/24 17:53:06;;;;;;;6.85;5.57;;;;;;;32.05;25.14;99594.59;12216486;19;20022;-82
2022/07/24 17:57:08;;;;;;;;;;;;;;;31.85;25.37;99582.66;12178725;19;20002;-83
2022/07/24 18:01:09;;;;;;;7.23;5.63;;;;;;;31.77;25.60;99578.97;12205866;19;19922;-83
2022/07/24 18:05:18;;;;;;;7.78;5.03;;;;;;;31.79;25.77;99588.72;12193688;19;20007;-84
2022/07/24 18:09:24;;;;;;;6.70;5.15;;;;;;;31.77;26.20;99585.50;12176140;19;20017;-89
2022/07/24 18:15:11;;;;;;;8.07;5.50;;;;;;;31.55;26.19;99586.56;12210615;19;20452;-89
2022/07/24 18:24:22;;;;;;;6.65;5.30;;;;;;;31.57;26.79;99586.19;12172337;19;20023;-89
2022/07/24 18:28:47;;;;;;;8.07;6.07;;;;;;;31.24;27.00;99580.25;12204742;19;20014;-89
2022/07/24 18:33:12;;;;;;;7.05;5.88;;;;;;;31.04;27.80;99587.41;12185711;19;20357;-89
2022/07/24 18:38:34;;;;;;;;;;;;;;;;;;;;;
2022/07/24 18:43:14;;;;;;;11.52;5.75;;;;;;;30.30;29.85;99574.84;12181336;19;20030;-89
2022/07/24 18:47:26;;;;;;;6.13;4.70;;;;;;;29.95;30.95;99584.59;12242317;19;20006;-89
2022/07/24 18:51:47;;;;;;;7.57;5.60;;;;;;;29.62;31.14;99585.31;12196902;19;20031;-89
2022/07/24 18:55:52;;;;;;;7.50;5.22;;;;;;;29.25;31.74;99577.47;12214086;19;20066;-89
2022/07/24 18:59:54;;;;;;;9.50;5.18;;;;;;;28.92;32.48;99577.31;12190782;19;20021;-89
2022/07/24 19:03:55;;;;;;;7.28;5.30;;;;;;;28.62;33.03;99581.66;12205414;19;20184;-89
2022/07/24 19:07:57;;;;;;;10.18;5.32;;;;;;;28.31;33.32;99574.13;12200086;19;20498;-89